Terminal Aerodrome Forecast
Issued by NWS

Home | Current Version | Previous Version | Text Only | Print | Product List | Glossary On
Versions: 1 2 3 4 5 6 7 8 9 10 11 12 13
934
FTUS44 KJAN 071720
TAFHKS
TAF
KHKS 071720Z 0718/0818 21005KT P6SM SKC
     FM080200 18004KT P6SM SKC
     FM081300 31010G17KT P6SM SKC=

USA.gov is the U.S. government's official web portal to all federal, state and local government web resources and services.